Baruc — 3EPL6 — position and weather

sailwx.info

Track history (hours):
 
Tides and Currents Weather Stations Pressure Air Temp Water Temp Dewpoint Dewpoint Depression Visibility Wind Speed Wind Dir Waves Ship Positions

Baruc

Last reported at 2017-Nov-12 01:14 UTC. Time now 2017-Nov-21 01:06 UTC.
Position N 10°19' W 075°40'.
Warning: this ship's position is 8 days out of date.

; draft 5.5 m.

Type: Ship (hazmat cat D). MMSI: 355102000.

Date/timePositionNaut miles runAvg speedWind from/ knotsBaromVisibWave heightAir tempDewpointWater temp
2017-Nov-12 01:14N 10°19' W 075°40'210.2
2017-Nov-12 01:00N 10°19' W 075°38'5 9.3
2017-Nov-12 00:29N 10°19' W 075°33'2 3.0
2017-Nov-11 23:56N 10°19' W 075°31'0 0.0
2017-Nov-11 23:26N 10°19' W 075°31'0 0.0
2017-Nov-11 22:59N 10°19' W 075°31'0 0.0
2017-Nov-11 22:29N 10°19' W 075°31'0 0.0
2017-Nov-11 21:59N 10°19' W 075°31'0 0.0
2017-Nov-11 21:20N 10°19' W 075°31'0 0.0
2017-Nov-11 20:56N 10°19' W 075°31'0 0.0
2017-Nov-11 20:26N 10°19' W 075°31'0 0.0
2017-Nov-11 19:59N 10°19' W 075°31'0 0.0
2017-Nov-11 19:29N 10°19' W 075°31'0 0.1
2017-Nov-11 18:56N 10°19' W 075°31'0 0.0
2017-Nov-11 18:26N 10°19' W 075°31'0 0.0
2017-Nov-11 17:56N 10°19' W 075°31'0 0.1
2017-Nov-11 17:26N 10°19' W 075°31'0 0.1
2017-Nov-11 16:59N 10°19' W 075°31'0 0.0
2017-Nov-11 16:14N 10°19' W 075°31'0 0.0
2017-Nov-11 15:56N 10°19' W 075°31'0 0.0
2017-Nov-11 15:26N 10°19' W 075°31'0 0.0
2017-Nov-11 14:59N 10°19' W 075°31'0 0.0
2017-Nov-11 14:26N 10°19' W 075°31'0 0.0
2017-Nov-11 13:56N 10°19' W 075°31'0 0.0
2017-Nov-11 13:29N 10°19' W 075°31'0 0.0
2017-Nov-11 12:59N 10°19' W 075°31'0 0.0
2017-Nov-11 12:29N 10°19' W 075°31'0 0.1
2017-Nov-11 11:59N 10°19' W 075°31'0 0.1
2017-Nov-11 11:29N 10°19' W 075°31'0 0.0
2017-Nov-11 10:59N 10°19' W 075°31'0 0.0
2017-Nov-11 10:26N 10°19' W 075°31'0 0.0
2017-Nov-11 09:56N 10°19' W 075°31'0 0.0
2017-Nov-11 09:26N 10°19' W 075°31'0 0.0
2017-Nov-11 08:03N 10°19' W 075°31'0 0.0
2017-Nov-11 08:00N 10°19' W 075°31'0 0.0
2017-Nov-11 07:30N 10°19' W 075°31'0 0.0
2017-Nov-11 06:51N 10°19' W 075°31'0 0.0
2017-Nov-11 06:27N 10°19' W 075°31'0 0.0
2017-Nov-11 06:00N 10°19' W 075°31'0 0.0
2017-Nov-11 05:30N 10°19' W 075°31'0 0.0
2017-Nov-11 05:00N 10°19' W 075°31'0 0.1
2017-Nov-11 04:30N 10°19' W 075°31'0 0.1
2017-Nov-11 04:00N 10°19' W 075°31'0 0.0
2017-Nov-11 03:30N 10°19' W 075°31'0 0.0
2017-Nov-11 02:48N 10°19' W 075°31'0 0.0
2017-Nov-11 02:30N 10°19' W 075°31'0 0.0
2017-Nov-11 02:00N 10°19' W 075°31'0 0.0
2017-Nov-11 01:30N 10°19' W 075°31'0 0.0
2017-Nov-11 00:57N 10°19' W 075°31'0 0.0
2017-Nov-11 00:30N 10°19' W 075°31'0 0.0
2017-Nov-11 00:00N 10°19' W 075°31'0 0.1
2017-Nov-10 23:27N 10°19' W 075°31'1 1.3
2017-Nov-10 22:56N 10°20' W 075°31'0 0.0
2017-Nov-10 22:26N 10°20' W 075°31'0 0.0
2017-Nov-10 21:56N 10°20' W 075°31'0 0.0
2017-Nov-10 21:26N 10°20' W 075°31'0 0.0
2017-Nov-10 20:56N 10°20' W 075°31'0 0.0
2017-Nov-10 20:26N 10°20' W 075°31'0 0.0
2017-Nov-10 19:56N 10°20' W 075°31'0 0.0
2017-Nov-10 19:29N 10°20' W 075°31'0 0.0
2017-Nov-10 18:59N 10°20' W 075°31'0 0.0
2017-Nov-10 18:29N 10°20' W 075°31'0 0.0
2017-Nov-10 17:56N 10°20' W 075°31'0 0.0
2017-Nov-10 17:26N 10°20' W 075°31'0 0.0
2017-Nov-10 16:59N 10°20' W 075°31'0 0.0
2017-Nov-10 16:26N 10°20' W 075°31'0 0.0
2017-Nov-10 15:56N 10°20' W 075°31'0 0.0
2017-Nov-10 15:29N 10°20' W 075°31'0 0.0
2017-Nov-10 14:56N 10°20' W 075°31'0 0.0
2017-Nov-10 14:20N 10°20' W 075°31'0 0.0
2017-Nov-10 13:59N 10°20' W 075°31'0 0.0
2017-Nov-10 12:56N 10°20' W 075°31'0 0.0
2017-Nov-10 12:26N 10°20' W 075°31'18 0.7
2017-Nov-09 12:36N 10°18' W 075°49'0 0.7
2017-Nov-09 12:29N 10°17' W 075°49'1 1.1
2017-Nov-09 11:54N 10°17' W 075°48'2 3.8
2017-Nov-09 11:30N 10°18' W 075°47'2 5.0
2017-Nov-09 11:00N 10°20' W 075°46'  
2017-Nov-02 12:04N 29°54' W 093°21'1 9.8
2017-Nov-02 12:00N 29°55' W 093°20'5 9.7
2017-Nov-02 11:31N 29°60' W 093°20'4 8.9
2017-Nov-02 11:01N 30°04' W 093°20'4 8.6
2017-Nov-02 10:30N 30°08' W 093°20'3 5.2
2017-Nov-02 10:00N 30°11' W 093°19'2 4.9
2017-Nov-02 09:30N 30°13' W 093°17'0 0.9
2017-Nov-02 09:00N 30°13' W 093°17'0 0.0
2017-Nov-02 08:29N 30°13' W 093°17'0 0.0
2017-Nov-02 07:59N 30°13' W 093°17'0 0.0
2017-Nov-02 07:29N 30°13' W 093°17'0 0.0
2017-Nov-02 06:59N 30°13' W 093°17'0 0.0
2017-Nov-02 06:29N 30°13' W 093°17'0 0.0
2017-Nov-02 05:59N 30°13' W 093°17'0 0.0
2017-Nov-02 05:20N 30°13' W 093°17'0 0.0
2017-Nov-02 04:59N 30°13' W 093°17'0 0.0
2017-Nov-02 04:29N 30°13' W 093°17'0 0.0
2017-Nov-02 03:59N 30°13' W 093°17'0 0.0
2017-Nov-02 03:29N 30°13' W 093°17'0 0.0
2017-Nov-02 02:59N 30°13' W 093°17'0 0.0
2017-Nov-02 02:29N 30°13' W 093°17'0 0.0
2017-Nov-02 01:59N 30°13' W 093°17'0 0.0
2017-Nov-02 01:29N 30°13' W 093°17'  
Track history (hours):
 
Tides and Currents Weather Stations Pressure Air Temp Water Temp Dewpoint Dewpoint Depression Visibility Wind Speed Wind Dir Waves Ship Positions

Baruc

Last reported at 2017-Nov-12 01:14 UTC. Time now 2017-Nov-21 01:06 UTC.
Position N 10°19' W 075°40'.
Warning: this ship's position is 8 days out of date.

; draft 5.5 m.

Type: Ship (hazmat cat D). MMSI: 355102000.

Date/timePositionNaut miles runAvg speedWind from/ knotsBaromVisibWave heightAir tempDewpointWater temp
2017-Nov-12 01:14N 10°19' W 075°40'210.2
2017-Nov-12 01:00N 10°19' W 075°38'5 9.3
2017-Nov-12 00:29N 10°19' W 075°33'2 3.0
2017-Nov-11 23:56N 10°19' W 075°31'0 0.0
2017-Nov-11 23:26N 10°19' W 075°31'0 0.0
2017-Nov-11 22:59N 10°19' W 075°31'0 0.0
2017-Nov-11 22:29N 10°19' W 075°31'0 0.0
2017-Nov-11 21:59N 10°19' W 075°31'0 0.0
2017-Nov-11 21:20N 10°19' W 075°31'0 0.0
2017-Nov-11 20:56N 10°19' W 075°31'0 0.0
2017-Nov-11 20:26N 10°19' W 075°31'0 0.0
2017-Nov-11 19:59N 10°19' W 075°31'0 0.0
2017-Nov-11 19:29N 10°19' W 075°31'0 0.1
2017-Nov-11 18:56N 10°19' W 075°31'0 0.0
2017-Nov-11 18:26N 10°19' W 075°31'0 0.0
2017-Nov-11 17:56N 10°19' W 075°31'0 0.1
2017-Nov-11 17:26N 10°19' W 075°31'0 0.1
2017-Nov-11 16:59N 10°19' W 075°31'0 0.0
2017-Nov-11 16:14N 10°19' W 075°31'0 0.0
2017-Nov-11 15:56N 10°19' W 075°31'0 0.0
2017-Nov-11 15:26N 10°19' W 075°31'0 0.0
2017-Nov-11 14:59N 10°19' W 075°31'0 0.0
2017-Nov-11 14:26N 10°19' W 075°31'0 0.0
2017-Nov-11 13:56N 10°19' W 075°31'0 0.0
2017-Nov-11 13:29N 10°19' W 075°31'0 0.0
2017-Nov-11 12:59N 10°19' W 075°31'0 0.0
2017-Nov-11 12:29N 10°19' W 075°31'0 0.1
2017-Nov-11 11:59N 10°19' W 075°31'0 0.1
2017-Nov-11 11:29N 10°19' W 075°31'0 0.0
2017-Nov-11 10:59N 10°19' W 075°31'0 0.0
2017-Nov-11 10:26N 10°19' W 075°31'0 0.0
2017-Nov-11 09:56N 10°19' W 075°31'0 0.0
2017-Nov-11 09:26N 10°19' W 075°31'0 0.0
2017-Nov-11 08:03N 10°19' W 075°31'0 0.0
2017-Nov-11 08:00N 10°19' W 075°31'0 0.0
2017-Nov-11 07:30N 10°19' W 075°31'0 0.0
2017-Nov-11 06:51N 10°19' W 075°31'0 0.0
2017-Nov-11 06:27N 10°19' W 075°31'0 0.0
2017-Nov-11 06:00N 10°19' W 075°31'0 0.0
2017-Nov-11 05:30N 10°19' W 075°31'0 0.0
2017-Nov-11 05:00N 10°19' W 075°31'0 0.1
2017-Nov-11 04:30N 10°19' W 075°31'0 0.1
2017-Nov-11 04:00N 10°19' W 075°31'0 0.0
2017-Nov-11 03:30N 10°19' W 075°31'0 0.0
2017-Nov-11 02:48N 10°19' W 075°31'0 0.0
2017-Nov-11 02:30N 10°19' W 075°31'0 0.0
2017-Nov-11 02:00N 10°19' W 075°31'0 0.0
2017-Nov-11 01:30N 10°19' W 075°31'0 0.0
2017-Nov-11 00:57N 10°19' W 075°31'0 0.0
2017-Nov-11 00:30N 10°19' W 075°31'0 0.0
2017-Nov-11 00:00N 10°19' W 075°31'0 0.1
2017-Nov-10 23:27N 10°19' W 075°31'1 1.3
2017-Nov-10 22:56N 10°20' W 075°31'0 0.0
2017-Nov-10 22:26N 10°20' W 075°31'0 0.0
2017-Nov-10 21:56N 10°20' W 075°31'0 0.0
2017-Nov-10 21:26N 10°20' W 075°31'0 0.0
2017-Nov-10 20:56N 10°20' W 075°31'0 0.0
2017-Nov-10 20:26N 10°20' W 075°31'0 0.0
2017-Nov-10 19:56N 10°20' W 075°31'0 0.0
2017-Nov-10 19:29N 10°20' W 075°31'0 0.0
2017-Nov-10 18:59N 10°20' W 075°31'0 0.0
2017-Nov-10 18:29N 10°20' W 075°31'0 0.0
2017-Nov-10 17:56N 10°20' W 075°31'0 0.0
2017-Nov-10 17:26N 10°20' W 075°31'0 0.0
2017-Nov-10 16:59N 10°20' W 075°31'0 0.0
2017-Nov-10 16:26N 10°20' W 075°31'0 0.0
2017-Nov-10 15:56N 10°20' W 075°31'0 0.0
2017-Nov-10 15:29N 10°20' W 075°31'0 0.0
2017-Nov-10 14:56N 10°20' W 075°31'0 0.0
2017-Nov-10 14:20N 10°20' W 075°31'0 0.0
2017-Nov-10 13:59N 10°20' W 075°31'0 0.0
2017-Nov-10 12:56N 10°20' W 075°31'0 0.0
2017-Nov-10 12:26N 10°20' W 075°31'18 0.7
2017-Nov-09 12:36N 10°18' W 075°49'0 0.7
2017-Nov-09 12:29N 10°17' W 075°49'1 1.1
2017-Nov-09 11:54N 10°17' W 075°48'2 3.8
2017-Nov-09 11:30N 10°18' W 075°47'2 5.0
2017-Nov-09 11:00N 10°20' W 075°46'  
2017-Nov-02 12:04N 29°54' W 093°21'1 9.8
2017-Nov-02 12:00N 29°55' W 093°20'5 9.7
2017-Nov-02 11:31N 29°60' W 093°20'4 8.9
2017-Nov-02 11:01N 30°04' W 093°20'4 8.6
2017-Nov-02 10:30N 30°08' W 093°20'3 5.2
2017-Nov-02 10:00N 30°11' W 093°19'2 4.9
2017-Nov-02 09:30N 30°13' W 093°17'0 0.9
2017-Nov-02 09:00N 30°13' W 093°17'0 0.0
2017-Nov-02 08:29N 30°13' W 093°17'0 0.0
2017-Nov-02 07:59N 30°13' W 093°17'0 0.0
2017-Nov-02 07:29N 30°13' W 093°17'0 0.0
2017-Nov-02 06:59N 30°13' W 093°17'0 0.0
2017-Nov-02 06:29N 30°13' W 093°17'0 0.0
2017-Nov-02 05:59N 30°13' W 093°17'0 0.0
2017-Nov-02 05:20N 30°13' W 093°17'0 0.0
2017-Nov-02 04:59N 30°13' W 093°17'0 0.0
2017-Nov-02 04:29N 30°13' W 093°17'0 0.0
2017-Nov-02 03:59N 30°13' W 093°17'0 0.0
2017-Nov-02 03:29N 30°13' W 093°17'0 0.0
2017-Nov-02 02:59N 30°13' W 093°17'0 0.0
2017-Nov-02 02:29N 30°13' W 093°17'0 0.0
2017-Nov-02 01:59N 30°13' W 093°17'0 0.0
2017-Nov-02 01:29N 30°13' W 093°17'  

Dump ship's entire track history